Wetterdaten: Woche 19.08.13 - 25.08.13 (KW34)
Datum Zeit Temperatur Luftfeuchte Luftdruck Niederschlag Windrichtung Sonnenschein Solar Wind
19.08.2013 00:00 18,4 C 83 % 1014,5 hPa 0,0 l/m N 0,00 h 0 W/m 0,9 km/h (0 Bft)
19.08.2013 01:00 18,1 C 84 % 1014,0 hPa 0,0 l/m N 0,00 h 0 W/m 1,6 km/h (1 Bft)
19.08.2013 02:00 17,4 C 88 % 1013,8 hPa 0,0 l/m N 0,00 h 0 W/m 0,0 km/h (0 Bft)
19.08.2013 03:00 17,3 C 90 % 1013,8 hPa 0,0 l/m W-NW 0,00 h 0 W/m 0,4 km/h (0 Bft)
19.08.2013 04:00 17,0 C 94 % 1013,3 hPa 0,0 l/m N 0,00 h 0 W/m 1,9 km/h (1 Bft)
19.08.2013 05:00 16,4 C 96 % 1012,6 hPa 0,0 l/m N 0,00 h 0 W/m 0,8 km/h (0 Bft)
19.08.2013 06:00 16,5 C 96 % 1012,5 hPa 0,0 l/m SW 0,00 h 9 W/m 1,6 km/h (1 Bft)
19.08.2013 07:00 17,3 C 95 % 1013,1 hPa 0,8 l/m SW 0,00 h 15 W/m 5,6 km/h (1 Bft)
19.08.2013 08:00 17,4 C 97 % 1013,4 hPa 0,8 l/m SW 0,00 h 29 W/m 8,3 km/h (2 Bft)
19.08.2013 09:00 17,6 C 98 % 1013,5 hPa 0,0 l/m SW 0,00 h 106 W/m 14,2 km/h (3 Bft)
19.08.2013 10:00 18,2 C 97 % 1013,7 hPa 0,4 l/m SW 0,00 h 85 W/m 13,2 km/h (3 Bft)
19.08.2013 11:00 18,5 C 96 % 1013,7 hPa 0,0 l/m SW 0,00 h 198 W/m 19,0 km/h (3 Bft)
19.08.2013 12:00 20,2 C 90 % 1013,1 hPa 0,0 l/m SW 0,50 h 473 W/m 22,9 km/h (4 Bft)
19.08.2013 13:00 21,7 C 82 % 1012,5 hPa 0,0 l/m SW 0,42 h 399 W/m 26,0 km/h (4 Bft)
19.08.2013 14:00 19,7 C 82 % 1013,3 hPa 0,0 l/m W-SW 0,00 h 48 W/m 22,4 km/h (4 Bft)
19.08.2013 15:00 16,7 C 89 % 1014,3 hPa 1,2 l/m N-NW 0,00 h 169 W/m 15,7 km/h (3 Bft)
19.08.2013 16:00 18,1 C 78 % 1014,9 hPa 0,0 l/m N 0,25 h 276 W/m 14,0 km/h (3 Bft)
19.08.2013 17:00 18,4 C 75 % 1015,6 hPa 0,0 l/m N 0,00 h 166 W/m 8,8 km/h (2 Bft)
19.08.2013 18:00 18,1 C 77 % 1016,8 hPa 1,6 l/m W-NW 0,00 h 51 W/m 6,0 km/h (2 Bft)
19.08.2013 19:00 15,7 C 88 % 1017,6 hPa 0,0 l/m N 0,00 h 50 W/m 6,4 km/h (2 Bft)
19.08.2013 20:00 14,6 C 94 % 1018,4 hPa 0,0 l/m N 0,08 h 11 W/m 0,8 km/h (0 Bft)
19.08.2013 21:00 13,6 C 95 % 1019,8 hPa 0,0 l/m N 0,00 h 0 W/m 1,6 km/h (1 Bft)
19.08.2013 22:00 13,6 C 94 % 1020,6 hPa 0,0 l/m N 0,00 h 0 W/m 0,4 km/h (0 Bft)
19.08.2013 23:00 13,1 C 96 % 1021,1 hPa 0,0 l/m N 0,00 h 0 W/m 0,1 km/h (0 Bft)
20.08.2013 00:00 13,4 C 94 % 1021,3 hPa 0,0 l/m N-NW 0,00 h 0 W/m 4,4 km/h (1 Bft)
20.08.2013 01:00 14,1 C 90 % 1021,8 hPa 0,0 l/m NW 0,00 h 0 W/m 7,4 km/h (2 Bft)
20.08.2013 02:00 13,6 C 89 % 1022,0 hPa 0,0 l/m N-NW 0,00 h 0 W/m 9,3 km/h (2 Bft)
20.08.2013 03:00 12,8 C 89 % 1022,5 hPa 0,0 l/m N-NW 0,00 h 0 W/m 6,3 km/h (2 Bft)
20.08.2013 04:00 11,2 C 93 % 1022,8 hPa 0,0 l/m N 0,00 h 0 W/m 0,4 km/h (0 Bft)
20.08.2013 05:00 10,4 C 96 % 1023,1 hPa 0,0 l/m N 0,00 h 0 W/m 0,9 km/h (0 Bft)
20.08.2013 06:00 9,5 C 97 % 1023,6 hPa 0,0 l/m N 0,00 h 12 W/m 0,1 km/h (0 Bft)
20.08.2013 07:00 10,1 C 97 % 1024,4 hPa 0,0 l/m N 0,08 h 76 W/m 0,1 km/h (0 Bft)
20.08.2013 08:00 12,8 C 90 % 1024,9 hPa 0,0 l/m N 1,00 h 243 W/m 0,0 km/h (0 Bft)
20.08.2013 09:00 14,4 C 78 % 1025,2 hPa 0,0 l/m N-NO 1,00 h 407 W/m 5,1 km/h (1 Bft)
20.08.2013 10:00 15,4 C 71 % 1025,5 hPa 0,0 l/m N-NO 0,92 h 550 W/m 7,8 km/h (2 Bft)
20.08.2013 11:00 16,5 C 64 % 1025,6 hPa 0,0 l/m NO 1,00 h 715 W/m 6,4 km/h (2 Bft)
20.08.2013 12:00 17,6 C 60 % 1025,4 hPa 0,0 l/m NO 0,83 h 751 W/m 8,5 km/h (2 Bft)
20.08.2013 13:00 18,1 C 56 % 1025,5 hPa 0,0 l/m N 0,25 h 433 W/m 8,9 km/h (2 Bft)
20.08.2013 14:00 18,9 C 51 % 1025,3 hPa 0,0 l/m N-NO 0,42 h 521 W/m 6,3 km/h (2 Bft)
20.08.2013 15:00 19,5 C 49 % 1025,1 hPa 0,0 l/m NO 0,58 h 550 W/m 8,7 km/h (2 Bft)
20.08.2013 16:00 18,9 C 58 % 1025,0 hPa 0,0 l/m O-NO 0,17 h 218 W/m 13,4 km/h (3 Bft)
20.08.2013 17:00 17,9 C 64 % 1025,1 hPa 0,0 l/m O 0,08 h 127 W/m 14,4 km/h (3 Bft)
20.08.2013 18:00 18,2 C 61 % 1025,1 hPa 0,0 l/m O-NO 1,00 h 329 W/m 15,3 km/h (3 Bft)
20.08.2013 19:00 17,3 C 65 % 1025,3 hPa 0,0 l/m O 0,50 h 91 W/m 12,6 km/h (3 Bft)
20.08.2013 20:00 15,4 C 72 % 1025,5 hPa 0,0 l/m O-NO 0,00 h 9 W/m 6,8 km/h (2 Bft)
20.08.2013 21:00 13,1 C 83 % 1025,7 hPa 0,0 l/m N 0,00 h 0 W/m 0,8 km/h (0 Bft)
20.08.2013 22:00 11,9 C 89 % 1025,8 hPa 0,0 l/m N 0,00 h 0 W/m 1,2 km/h (1 Bft)
20.08.2013 23:00 11,6 C 89 % 1025,7 hPa 0,0 l/m N 0,00 h 0 W/m 3,6 km/h (1 Bft)
21.08.2013 00:00 11,1 C 91 % 1025,2 hPa 0,0 l/m N 0,00 h 0 W/m 2,5 km/h (1 Bft)
21.08.2013 01:00 10,9 C 91 % 1024,9 hPa 0,0 l/m N 0,00 h 0 W/m 4,1 km/h (1 Bft)
21.08.2013 02:00 10,6 C 92 % 1024,5 hPa 0,0 l/m O-NO 0,00 h 0 W/m 3,9 km/h (1 Bft)
21.08.2013 03:00 10,3 C 94 % 1024,3 hPa 0,0 l/m O-NO 0,00 h 0 W/m 5,3 km/h (1 Bft)
21.08.2013 04:00 9,9 C 95 % 1024,0 hPa 0,0 l/m O-NO 0,00 h 0 W/m 4,4 km/h (1 Bft)
21.08.2013 05:00 9,7 C 95 % 1023,6 hPa 0,0 l/m NO 0,00 h 0 W/m 5,3 km/h (1 Bft)
21.08.2013 06:00 9,5 C 96 % 1023,4 hPa 0,0 l/m NO 0,08 h 12 W/m 5,7 km/h (1 Bft)
21.08.2013 07:00 10,0 C 96 % 1023,3 hPa 0,0 l/m N-NO 0,00 h 72 W/m 9,3 km/h (2 Bft)
21.08.2013 08:00 11,4 C 93 % 1023,4 hPa 0,0 l/m NO 0,75 h 230 W/m 11,0 km/h (2 Bft)
21.08.2013 09:00 13,7 C 86 % 1023,2 hPa 0,0 l/m NO 1,00 h 412 W/m 14,1 km/h (3 Bft)
21.08.2013 10:00 16,3 C 75 % 1023,1 hPa 0,0 l/m O-NO 1,00 h 569 W/m 18,1 km/h (3 Bft)
21.08.2013 11:00 18,1 C 65 % 1022,7 hPa 0,0 l/m NO 1,00 h 702 W/m 22,8 km/h (4 Bft)
21.08.2013 12:00 19,5 C 58 % 1022,2 hPa 0,0 l/m O 1,00 h 787 W/m 24,0 km/h (4 Bft)
21.08.2013 13:00 20,8 C 52 % 1021,8 hPa 0,0 l/m O 1,00 h 807 W/m 22,5 km/h (4 Bft)
21.08.2013 14:00 21,7 C 50 % 1021,4 hPa 0,0 l/m O 1,00 h 788 W/m 22,1 km/h (4 Bft)
21.08.2013 15:00 22,3 C 47 % 1020,7 hPa 0,0 l/m O-NO 1,00 h 714 W/m 18,9 km/h (3 Bft)
21.08.2013 16:00 22,6 C 47 % 1020,3 hPa 0,0 l/m O 1,00 h 607 W/m 21,2 km/h (4 Bft)
21.08.2013 17:00 22,8 C 46 % 1020,1 hPa 0,0 l/m O-NO 1,00 h 459 W/m 18,6 km/h (3 Bft)
21.08.2013 18:00 21,7 C 47 % 1020,0 hPa 0,0 l/m NO 1,00 h 282 W/m 17,0 km/h (3 Bft)
21.08.2013 19:00 20,2 C 50 % 1019,8 hPa 0,0 l/m O 0,42 h 74 W/m 13,6 km/h (3 Bft)
21.08.2013 20:00 18,0 C 58 % 1019,9 hPa 0,0 l/m O-NO 0,00 h 9 W/m 6,0 km/h (2 Bft)
21.08.2013 21:00 14,9 C 73 % 1020,1 hPa 0,0 l/m N 0,00 h 0 W/m 1,2 km/h (1 Bft)
21.08.2013 22:00 13,8 C 78 % 1020,0 hPa 0,0 l/m N 0,00 h 0 W/m 2,4 km/h (1 Bft)
21.08.2013 23:00 13,5 C 79 % 1019,9 hPa 0,0 l/m O-NO 0,00 h 0 W/m 3,1 km/h (1 Bft)
22.08.2013 00:00 12,6 C 83 % 1019,8 hPa 0,0 l/m O-NO 0,00 h 0 W/m 2,5 km/h (1 Bft)
22.08.2013 01:00 12,0 C 85 % 1019,5 hPa 0,0 l/m O-NO 0,00 h 0 W/m 4,1 km/h (1 Bft)
22.08.2013 02:00 11,2 C 88 % 1019,1 hPa 0,0 l/m N 0,00 h 0 W/m 3,5 km/h (1 Bft)
22.08.2013 03:00 10,7 C 89 % 1018,9 hPa 0,0 l/m O-NO 0,00 h 0 W/m 4,8 km/h (1 Bft)
22.08.2013 04:00 10,4 C 91 % 1018,5 hPa 0,0 l/m N 0,00 h 0 W/m 2,8 km/h (1 Bft)
22.08.2013 05:00 9,9 C 91 % 1018,3 hPa 0,0 l/m N 0,00 h 0 W/m 2,7 km/h (1 Bft)
22.08.2013 06:00 9,6 C 93 % 1018,2 hPa 0,0 l/m N 0,00 h 11 W/m 3,6 km/h (1 Bft)
22.08.2013 07:00 10,4 C 91 % 1018,1 hPa 0,0 l/m NO 0,17 h 77 W/m 4,1 km/h (1 Bft)
22.08.2013 08:00 12,7 C 84 % 1018,0 hPa 0,0 l/m NO 1,00 h 240 W/m 7,8 km/h (2 Bft)
22.08.2013 09:00 15,1 C 78 % 1017,8 hPa 0,0 l/m NO 1,00 h 406 W/m 10,1 km/h (2 Bft)
22.08.2013 10:00 17,3 C 70 % 1017,6 hPa 0,0 l/m O-NO 1,00 h 554 W/m 14,5 km/h (3 Bft)
22.08.2013 11:00 19,2 C 63 % 1017,2 hPa 0,0 l/m O-NO 1,00 h 690 W/m 17,8 km/h (3 Bft)
22.08.2013 12:00 20,6 C 58 % 1016,7 hPa 0,0 l/m O-NO 1,00 h 760 W/m 18,0 km/h (3 Bft)
22.08.2013 13:00 21,7 C 53 % 1016,5 hPa 0,0 l/m NO 1,00 h 754 W/m 16,9 km/h (3 Bft)
22.08.2013 14:00 22,6 C 49 % 1016,2 hPa 0,0 l/m O-NO 1,00 h 744 W/m 16,6 km/h (3 Bft)
22.08.2013 15:00 23,2 C 47 % 1015,8 hPa 0,0 l/m O-SO 1,00 h 619 W/m 16,9 km/h (3 Bft)
22.08.2013 16:00 23,6 C 46 % 1015,5 hPa 0,0 l/m O-NO 1,00 h 550 W/m 17,3 km/h (3 Bft)
22.08.2013 17:00 23,1 C 47 % 1015,5 hPa 0,0 l/m O-NO 0,67 h 326 W/m 15,3 km/h (3 Bft)
22.08.2013 18:00 21,7 C 52 % 1015,3 hPa 0,0 l/m O-NO 0,00 h 117 W/m 14,5 km/h (3 Bft)
22.08.2013 19:00 20,2 C 57 % 1015,4 hPa 0,0 l/m NO 0,00 h 52 W/m 12,0 km/h (2 Bft)
22.08.2013 20:00 18,6 C 61 % 1015,5 hPa 0,0 l/m NO 0,00 h 9 W/m 9,4 km/h (2 Bft)
22.08.2013 21:00 16,6 C 68 % 1015,8 hPa 0,0 l/m N 0,00 h 0 W/m 4,1 km/h (1 Bft)
22.08.2013 22:00 15,4 C 75 % 1015,9 hPa 0,0 l/m N 0,00 h 0 W/m 2,4 km/h (1 Bft)
22.08.2013 23:00 14,8 C 79 % 1015,9 hPa 0,0 l/m N 0,00 h 0 W/m 3,7 km/h (1 Bft)
23.08.2013 00:00 14,2 C 81 % 1015,7 hPa 0,0 l/m NO 0,00 h 0 W/m 4,3 km/h (1 Bft)
23.08.2013 01:00 13,8 C 82 % 1015,4 hPa 0,0 l/m N 0,00 h 0 W/m 2,3 km/h (1 Bft)
23.08.2013 02:00 13,3 C 84 % 1015,1 hPa 0,0 l/m N 0,00 h 0 W/m 2,0 km/h (1 Bft)
23.08.2013 03:00 12,8 C 84 % 1015,0 hPa 0,0 l/m NO 0,00 h 0 W/m 3,2 km/h (1 Bft)
23.08.2013 04:00 12,4 C 86 % 1014,8 hPa 0,0 l/m N 0,00 h 0 W/m 2,4 km/h (1 Bft)
23.08.2013 05:00 12,1 C 88 % 1014,6 hPa 0,0 l/m NO 0,00 h 0 W/m 2,8 km/h (1 Bft)
23.08.2013 06:00 11,6 C 90 % 1014,6 hPa 0,0 l/m N 0,00 h 10 W/m 1,5 km/h (1 Bft)
23.08.2013 07:00 11,9 C 90 % 1014,7 hPa 0,0 l/m N 0,00 h 48 W/m 1,2 km/h (1 Bft)
23.08.2013 08:00 13,1 C 87 % 1014,8 hPa 0,0 l/m N 0,00 h 128 W/m 3,9 km/h (1 Bft)
23.08.2013 09:00 14,4 C 83 % 1014,8 hPa 0,0 l/m N 0,08 h 211 W/m 3,2 km/h (1 Bft)
23.08.2013 10:00 16,0 C 79 % 1014,7 hPa 0,0 l/m NO 0,33 h 276 W/m 3,9 km/h (1 Bft)
23.08.2013 11:00 18,1 C 74 % 1014,6 hPa 0,0 l/m NO 0,83 h 569 W/m 5,1 km/h (1 Bft)
23.08.2013 12:00 20,1 C 68 % 1014,3 hPa 0,0 l/m O-NO 0,67 h 581 W/m 8,2 km/h (2 Bft)
23.08.2013 13:00 22,3 C 60 % 1014,1 hPa 0,0 l/m SO 0,75 h 615 W/m 7,9 km/h (2 Bft)
23.08.2013 14:00 21,7 C 59 % 1014,0 hPa 0,0 l/m O-NO 0,08 h 226 W/m 5,1 km/h (1 Bft)
23.08.2013 15:00 22,6 C 56 % 1013,6 hPa 0,0 l/m NO 0,58 h 394 W/m 9,0 km/h (2 Bft)
23.08.2013 16:00 23,5 C 53 % 1013,4 hPa 0,0 l/m NO 0,75 h 510 W/m 11,4 km/h (2 Bft)
23.08.2013 17:00 22,5 C 56 % 1013,1 hPa 0,0 l/m O-NO 0,17 h 135 W/m 13,8 km/h (3 Bft)
23.08.2013 18:00 21,3 C 60 % 1013,0 hPa 0,0 l/m O-NO 0,08 h 82 W/m 14,6 km/h (3 Bft)
23.08.2013 19:00 20,0 C 63 % 1013,0 hPa 0,0 l/m O-NO 0,25 h 49 W/m 9,7 km/h (2 Bft)
23.08.2013 20:00 18,7 C 69 % 1013,3 hPa 0,0 l/m NO 0,17 h 14 W/m 6,4 km/h (2 Bft)
23.08.2013 21:00 16,4 C 81 % 1013,9 hPa 0,0 l/m N 0,00 h 0 W/m 1,6 km/h (1 Bft)
23.08.2013 22:00 15,3 C 86 % 1013,9 hPa 0,0 l/m N 0,00 h 0 W/m 1,5 km/h (1 Bft)
23.08.2013 23:00 14,9 C 87 % 1013,8 hPa 0,0 l/m NO 0,00 h 0 W/m 2,9 km/h (1 Bft)
24.08.2013 00:00 14,2 C 89 % 1013,7 hPa 0,0 l/m NO 0,00 h 0 W/m 2,9 km/h (1 Bft)
24.08.2013 01:00 13,6 C 90 % 1013,3 hPa 0,0 l/m N 0,00 h 0 W/m 2,9 km/h (1 Bft)
24.08.2013 02:00 13,0 C 91 % 1013,2 hPa 0,0 l/m N 0,00 h 0 W/m 1,3 km/h (1 Bft)
24.08.2013 03:00 12,4 C 93 % 1012,8 hPa 0,0 l/m N 0,00 h 0 W/m 1,6 km/h (1 Bft)
24.08.2013 04:00 12,0 C 93 % 1012,5 hPa 0,0 l/m N 0,00 h 0 W/m 2,3 km/h (1 Bft)
24.08.2013 05:00 11,4 C 94 % 1012,1 hPa 0,0 l/m N 0,00 h 0 W/m 1,2 km/h (1 Bft)
24.08.2013 06:00 11,1 C 95 % 1012,1 hPa 0,0 l/m N 0,00 h 10 W/m 1,7 km/h (1 Bft)
24.08.2013 07:00 11,7 C 95 % 1011,9 hPa 0,0 l/m N 0,17 h 70 W/m 1,6 km/h (1 Bft)
24.08.2013 08:00 13,6 C 90 % 1011,5 hPa 0,0 l/m NO 0,75 h 190 W/m 2,9 km/h (1 Bft)
24.08.2013 09:00 15,9 C 83 % 1011,2 hPa 0,0 l/m NO 0,75 h 290 W/m 2,7 km/h (1 Bft)
24.08.2013 10:00 17,9 C 80 % 1010,8 hPa 0,0 l/m NO 0,58 h 360 W/m 2,9 km/h (1 Bft)
24.08.2013 11:00 19,9 C 75 % 1010,1 hPa 0,0 l/m S 0,33 h 351 W/m 6,0 km/h (2 Bft)
24.08.2013 12:00 21,9 C 67 % 1009,7 hPa 0,0 l/m O-SO 0,67 h 506 W/m 7,0 km/h (2 Bft)
24.08.2013 13:00 22,6 C 64 % 1009,2 hPa 0,0 l/m O-SO 0,08 h 272 W/m 4,4 km/h (1 Bft)
24.08.2013 14:00 22,3 C 66 % 1009,0 hPa 0,0 l/m W-NW 0,00 h 180 W/m 6,0 km/h (2 Bft)
24.08.2013 15:00 21,1 C 72 % 1009,6 hPa 0,0 l/m W 0,00 h 89 W/m 20,1 km/h (4 Bft)
24.08.2013 16:00 17,7 C 85 % 1010,4 hPa 0,2 l/m W 0,00 h 102 W/m 20,8 km/h (4 Bft)
24.08.2013 17:00 17,9 C 85 % 1009,9 hPa 0,0 l/m W-NW 0,33 h 233 W/m 8,0 km/h (2 Bft)
24.08.2013 18:00 18,2 C 82 % 1009,9 hPa 0,0 l/m SW 0,08 h 71 W/m 7,0 km/h (2 Bft)
24.08.2013 19:00 17,0 C 87 % 1010,0 hPa 0,0 l/m SW 0,00 h 28 W/m 7,2 km/h (2 Bft)
24.08.2013 20:00 15,9 C 91 % 1010,1 hPa 0,0 l/m SW 0,00 h 6 W/m 3,1 km/h (1 Bft)
24.08.2013 21:00 15,0 C 93 % 1009,8 hPa 0,0 l/m N 0,00 h 0 W/m 0,4 km/h (0 Bft)
24.08.2013 22:00 14,8 C 95 % 1009,8 hPa 0,0 l/m N 0,00 h 0 W/m 0,7 km/h (0 Bft)
24.08.2013 23:00 14,8 C 95 % 1009,5 hPa 0,0 l/m N 0,00 h 0 W/m 0,5 km/h (0 Bft)
25.08.2013 00:00 15,0 C 96 % 1009,2 hPa 1,4 l/m S-SW 0,00 h 0 W/m 4,6 km/h (1 Bft)
25.08.2013 01:00 14,6 C 97 % 1009,0 hPa 1,4 l/m SW 0,00 h 0 W/m 5,8 km/h (1 Bft)
25.08.2013 02:00 14,0 C 97 % 1008,7 hPa 0,0 l/m N-NO 0,00 h 0 W/m 4,8 km/h (1 Bft)
25.08.2013 03:00 13,6 C 96 % 1008,5 hPa 0,0 l/m N 0,00 h 0 W/m 2,3 km/h (1 Bft)
25.08.2013 04:00 13,1 C 96 % 1008,3 hPa 0,0 l/m N 0,00 h 0 W/m 2,1 km/h (1 Bft)
25.08.2013 05:00 12,8 C 97 % 1008,4 hPa 0,0 l/m N 0,00 h 0 W/m 1,5 km/h (1 Bft)
25.08.2013 06:00 13,1 C 98 % 1008,6 hPa 0,0 l/m NW 0,00 h 0 W/m 2,9 km/h (1 Bft)
25.08.2013 07:00 13,3 C 98 % 1008,6 hPa 0,0 l/m W-SW 0,00 h 18 W/m 12,8 km/h (3 Bft)
25.08.2013 08:00 13,0 C 96 % 1008,9 hPa 0,0 l/m W-SW 0,00 h 42 W/m 13,2 km/h (3 Bft)
25.08.2013 09:00 13,0 C 95 % 1009,1 hPa 0,0 l/m W-SW 0,00 h 42 W/m 9,2 km/h (2 Bft)
25.08.2013 10:00 13,0 C 95 % 1009,3 hPa 0,2 l/m W-SW 0,00 h 23 W/m 8,3 km/h (2 Bft)
25.08.2013 11:00 13,5 C 96 % 1009,5 hPa 0,0 l/m W-SW 0,00 h 123 W/m 10,2 km/h (2 Bft)
25.08.2013 12:00 14,8 C 92 % 1009,4 hPa 0,0 l/m W-SW 0,00 h 139 W/m 10,6 km/h (2 Bft)
25.08.2013 13:00 14,4 C 93 % 1009,4 hPa 0,2 l/m W 0,00 h 121 W/m 11,4 km/h (2 Bft)
25.08.2013 14:00 14,8 C 92 % 1009,4 hPa 0,8 l/m W 0,00 h 94 W/m 9,4 km/h (2 Bft)
25.08.2013 15:00 14,6 C 94 % 1009,3 hPa 1,4 l/m NW 0,00 h 159 W/m 6,4 km/h (2 Bft)
25.08.2013 16:00 15,1 C 92 % 1009,3 hPa 0,0 l/m NW 0,08 h 203 W/m 8,3 km/h (2 Bft)
25.08.2013 17:00 14,8 C 90 % 1009,4 hPa 1,0 l/m W-NW 0,00 h 93 W/m 10,7 km/h (2 Bft)
25.08.2013 18:00 13,7 C 95 % 1009,6 hPa 0,2 l/m W-NW 0,00 h 40 W/m 8,6 km/h (2 Bft)
25.08.2013 19:00 13,4 C 96 % 1009,7 hPa 0,0 l/m W-NW 0,00 h 14 W/m 10,5 km/h (2 Bft)
25.08.2013 20:00 13,1 C 95 % 1010,0 hPa 0,0 l/m W-NW 0,00 h 0 W/m 9,4 km/h (2 Bft)
25.08.2013 21:00 12,9 C 96 % 1010,2 hPa 0,2 l/m N 0,00 h 0 W/m 1,1 km/h (0 Bft)
25.08.2013 22:00 12,1 C 97 % 1010,0 hPa 0,0 l/m N 0,00 h 0 W/m 0,5 km/h (0 Bft)
25.08.2013 23:00 11,7 C 98 % 1010,2 hPa 0,0 l/m N 0,00 h 0 W/m 2,4 km/h (1 Bft)
Min-Datum _ 20.08.13 20.08.13 25.08.13 - - - - 19.08.13
_ Min-Zeit 06:40 15:40 04:15 - - - - 00:15
Minimum _ 9,3 C 43 % 1008,2 hPa - - - - 0,0 km/h (0 Bft)
Max-Datum _ 23.08.13 25.08.13 20.08.13 19.08.13 - 19.08.13 20.08.13 24.08.13
_ Max-Zeit 16:30 23:30 11:00 18:50 - 12:25 14:30 15:55
Maximum _ 24,1 C 99 % 1025,8 hPa 1,6 l/m - 0,08 h 970 W/m 41,8 km/h
W-NW (6 Bft)
Durchschnitt _ 15,8 C 81 % 1016,2 hPa #11,8 l/m NO #38:45 h 265 W/m 7,5 km/h (2 Bft)